Aérodrome :
LOGIN :

S'inscrire | Disclaimer

   EN    FR    IT 

 










Légende :    VFR   VFR Marginal   IFR   IFR Intensif   IFR Très Intensif
Visi : 
Plafond : 
>= 8 km
>= 3000ft
5 à 8 km
1000 à 3000 ft
1500m à 5 km
500 à 1000 ft
800 à 1500m
200 à 500 ft
< 800m
< 200 ft
Symboles :   Orages  Brouillard  Fortes neiges  Fortes précipitations  Vent > 20 kt
SIGMETs :   Divers  Orages  Givrage  Turbulence  Onde Orograph.  Cendres Volcan.







- Altitude de l'aérodrome : 375 ft
- Code IATA : MST


EHBK - Maastricht Aachen

DERNIER METAR :
  • 211355Z AUTO 25008KT 200V300 9999 FEW024 OVC046 13/07 Q1027 NOSIG

METARs EXPIRÉS :
  • 211325Z AUTO 25007KT 200V290 9999 FEW025 SCT048 13/06 Q1027 NOSIG
  • 211255Z AUTO 25009KT 210V290 9999 NSC 12/06 Q1027 NOSIG
  • 211225Z AUTO 24009KT 210V280 9999 FEW042 12/07 Q1027 NOSIG
  • 211155Z AUTO 23010KT 210V270 9999 NSC 13/07 Q1027 NOSIG
  • 211125Z AUTO 23009KT 200V260 9999 NSC 11/07 Q1027 NOSIG
  • 211055Z AUTO 24009KT 210V280 9999 FEW026 11/07 Q1027 NOSIG

TAF TAF EHBK
Valide du 21 à 12h jusqu'au 22 à 18h UTC


211057Z 2112/2218 25010KT 9999 SCT025
BECMG 2121/2124 4000 BR BKN006
BECMG 2202/2205 2000 BKN003
PROB40 2204/2211 0500 FG BKN001
BECMG 2209/2212 31005KT 4000 BKN005
BECMG 2213/2216 7000 NSW BKN014
BECMG 2216/2218 08005KT CAVOK
Pas de NOTAMs connus pour ce terrain.



MET'MAP, la Météo Aéronautique d'un coup d'oeil ! - Copyright ORBIFLY Décembre 2007 - Disclaimer

ORBIFLY MET'MAP TEAM :

Programmation & Développement : Alexandra Zaïnal
Conception & Développement : Baudouin d'Aumeries
Co-Programmation & Développement : Marc-Olivier Méhu
Soutien technique & logistique : Manuel Goepfert

Contact : metmap@orbifly.com




SOURCES & CREDITS :

   NOAA